Time;durP1;ratioP1;P1;durP2;ratioP2;P2;SDS_P1;SDS_P2;PMS_P1;PMS_P2;Temp;Humidity;BMP_temperature;BMP_pressure;BME280_temperature;BME280_humidity;BME280_pressure;Samples;Min_cycle;Max_cycle;Signal;HPM_P1;HPM_P2
2021/04/13 00:01:10;;;;;;;5.10;1.87;;;3.90;73.50;;;;;;5092806;28;20035;-78
2021/04/13 00:04:05;;;;;;;5.83;2.00;;;3.80;73.90;;;;;;5074607;28;20026;-77
2021/04/13 00:06:42;;;;;;;2.97;1.87;;;3.80;73.80;;;;;;5066174;28;20036;-76
2021/04/13 00:09:22;;;;;;;3.63;2.23;;;3.80;73.90;;;;;;5093438;28;20103;-77
2021/04/13 00:11:51;;;;;;;3.10;1.67;;;3.70;74.30;;;;;;5074496;28;20039;-77
2021/04/13 00:14:23;;;;;;;3.00;1.73;;;3.70;74.50;;;;;;5075053;28;20469;-77
2021/04/13 00:16:51;;;;;;;2.97;1.90;;;3.60;74.70;;;;;;5074692;28;20070;-78
2021/04/13 00:19:27;;;;;;;3.33;2.10;;;3.60;74.60;;;;;;5075335;28;20473;-78
2021/04/13 00:21:53;;;;;;;6.00;2.00;;;3.60;74.40;;;;;;5092856;28;20031;-78
2021/04/13 00:24:22;;;;;;;3.20;1.80;;;3.50;74.50;;;;;;5075186;28;20447;-77
2021/04/13 00:26:51;;;;;;;2.93;1.90;;;3.40;74.80;;;;;;5074741;28;20120;-77
2021/04/13 00:29:26;;;;;;;2.80;2.27;;;3.40;74.90;;;;;;5074897;28;20025;-77
2021/04/13 00:32:05;;;;;;;4.07;2.07;;;3.30;75.80;;;;;;5092618;28;20056;-77
2021/04/13 00:35:08;;;;;;;2.27;1.87;;;3.40;75.40;;;;;;5075230;28;20404;-77
2021/04/13 00:37:34;;;;;;;2.57;1.80;;;3.40;75.00;;;;;;5075286;28;20020;-77
2021/04/13 00:40:23;;;;;;;3.70;2.03;;;3.60;74.30;;;;;;5092681;28;20038;-77
2021/04/13 00:42:52;;;;;;;3.17;1.70;;;3.50;73.80;;;;;;5074590;28;20031;-78
2021/04/13 00:45:28;;;;;;;2.80;1.80;;;3.50;74.00;;;;;;5075058;28;20055;-76
2021/04/13 00:47:54;;;;;;;3.10;1.73;;;3.50;73.40;;;;;;5074357;28;20029;-76
2021/04/13 00:50:46;;;;;;;3.07;2.00;;;3.50;73.30;;;;;;5081196;28;20057;-77
2021/04/13 00:53:16;;;;;;;2.67;1.67;;;3.40;73.60;;;;;;5069738;28;20032;-76
2021/04/13 00:55:50;;;;;;;3.23;1.90;;;3.50;73.60;;;;;;5076232;28;20104;-77
2021/04/13 00:58:36;;;;;;;3.00;1.77;;;3.50;73.70;;;;;;5076234;28;20035;-77
2021/04/13 01:01:27;;;;;;;2.50;1.90;;;3.50;73.60;;;;;;5074781;28;20025;-76
2021/04/13 01:04:04;;;;;;;4.17;2.10;;;3.50;74.30;;;;;;5075916;28;20027;-76
2021/04/13 01:06:33;;;;;;;4.53;2.43;;;3.50;74.00;;;;;;5075088;28;20469;-76
2021/04/13 01:09:24;;;;;;;3.23;2.00;;;3.50;74.10;;;;;;5075981;28;20043;-76
2021/04/13 01:11:56;;;;;;;4.30;2.08;;;3.50;74.00;;;;;;5074543;28;20058;-77
2021/04/13 01:14:24;;;;;;;3.65;2.17;;;3.60;73.90;;;;;;5084374;28;20043;-76
2021/04/13 01:16:59;;;;;;;2.87;2.03;;;3.60;74.10;;;;;;5094443;28;20035;-76
2021/04/13 01:19:25;;;;;;;3.50;2.27;;;3.50;74.80;;;;;;5096223;28;20113;-76
2021/04/13 01:22:24;;;;;;;3.30;1.90;;;3.50;75.10;;;;;;5095763;28;20062;-76
2021/04/13 01:24:52;;;;;;;4.23;2.20;;;3.50;75.40;;;;;;5095858;28;20134;-77
2021/04/13 01:27:23;;;;;;;3.90;2.10;;;3.50;75.30;;;;;;5094855;28;20021;-75
2021/04/13 01:29:51;;;;;;;2.95;2.03;;;3.50;75.70;;;;;;5094441;28;20062;-76
2021/04/13 01:32:19;;;;;;;3.83;2.37;;;3.60;75.90;;;;;;5094632;28;20028;-76
2021/04/13 01:34:53;;;;;;;4.13;2.50;;;3.70;75.30;;;;;;5094140;28;20024;-76
2021/04/13 01:39:57;;;;;;;4.23;2.30;;;3.80;76.00;;;;;;5095422;28;20519;-77
2021/04/13 01:42:25;;;;;;;3.87;2.40;;;3.70;75.10;;;;;;5094792;28;20031;-76
2021/04/13 01:44:57;;;;;;;4.83;2.60;;;3.70;75.30;;;;;;5094051;28;20366;-77
2021/04/13 01:47:23;;;;;;;;;;;3.70;75.60;;;;;;5094575;28;20031;-76
2021/04/13 01:49:56;;;;;;;5.00;2.63;;;3.80;75.90;;;;;;5086874;28;20406;-76
2021/04/13 01:52:30;;;;;;;4.43;2.33;;;3.70;75.80;;;;;;5074173;28;20237;-76
2021/04/13 01:55:23;;;;;;;4.83;2.77;;;3.80;75.80;;;;;;5075022;28;20028;-77
2021/04/13 01:58:11;;;;;;;6.13;2.90;;;3.70;76.20;;;;;;5073725;28;20064;-76
2021/04/13 02:00:46;;;;;;;10.03;3.60;;;3.70;76.80;;;;;;5074495;28;20119;-76
2021/04/13 02:03:15;;;;;;;8.03;3.70;;;3.80;76.70;;;;;;5073334;28;20025;-76
2021/04/13 02:05:47;;;;;;;8.33;4.13;;;3.70;76.40;;;;;;5075181;28;20031;-77
2021/04/13 02:08:29;;;;;;;5.60;3.20;;;3.80;76.70;;;;;;5074012;28;20063;-76
2021/04/13 02:11:00;;;;;;;9.27;3.53;;;3.70;76.70;;;;;;5073271;28;20071;-76
2021/04/13 02:13:35;;;;;;;8.13;3.05;;;3.70;76.30;;;;;;5073860;28;20265;-76
2021/04/13 02:16:24;;;;;;;5.83;3.10;;;3.80;76.70;;;;;;5074599;28;20033;-76
2021/04/13 02:18:52;;;;;;;5.17;2.63;;;3.80;76.40;;;;;;5074748;28;20029;-76
2021/04/13 02:21:29;;;;;;;6.97;2.97;;;3.80;76.40;;;;;;5092680;28;20388;-76
2021/04/13 02:24:09;;;;;;;4.60;2.77;;;3.90;75.90;;;;;;5094564;28;20465;-76
2021/04/13 02:26:52;;;;;;;7.17;3.10;;;3.90;76.00;;;;;;5093757;28;20031;-76
2021/04/13 02:29:20;;;;;;;4.23;2.67;;;4.00;76.40;;;;;;5095095;28;20024;-76
2021/04/13 02:31:54;;;;;;;5.77;3.10;;;4.00;76.50;;;;;;5094082;28;20024;-77
2021/04/13 02:34:28;;;;;;;5.30;3.50;;;4.00;75.80;;;;;;5094550;28;20042;-76
2021/04/13 02:36:57;;;;;;;6.30;3.40;;;4.00;76.40;;;;;;5094457;28;20020;-76
2021/04/13 02:39:26;;;;;;;6.03;2.90;;;4.20;76.20;;;;;;5094796;28;20028;-76
2021/04/13 02:42:01;;;;;;;7.23;3.20;;;4.20;77.00;;;;;;5093102;28;20473;-76
2021/04/13 02:44:27;;;;;;;5.70;3.57;;;4.20;76.10;;;;;;5093622;28;20071;-76
2021/04/13 02:46:57;;;;;;;8.13;3.60;;;4.20;76.80;;;;;;5092800;28;20119;-76
2021/04/13 02:49:25;;;;;;;5.13;2.97;;;4.20;77.00;;;;;;5096172;28;20055;-76
2021/04/13 02:51:58;;;;;;;5.17;3.10;;;4.10;77.10;;;;;;5096474;28;20032;-77
2021/04/13 02:54:48;;;;;;;6.93;3.60;;;4.10;77.20;;;;;;5114758;28;20027;-76
2021/04/13 02:57:31;;;;;;;6.00;3.33;;;4.10;76.90;;;;;;5096333;28;20112;-76
2021/04/13 03:00:08;;;;;;;6.57;2.80;;;4.10;76.70;;;;;;5095943;28;20024;-76
2021/04/13 03:02:42;;;;;;;3.97;2.93;;;4.00;76.30;;;;;;5096548;28;20478;-75
2021/04/13 03:05:13;;;;;;;5.40;3.00;;;4.00;76.10;;;;;;5095936;28;20457;-76
2021/04/13 03:07:39;;;;;;;4.73;2.87;;;4.00;75.90;;;;;;5096113;28;20024;-76
2021/04/13 03:10:12;;;;;;;4.83;2.60;;;4.00;76.00;;;;;;5095547;28;20027;-76
2021/04/13 03:12:42;;;;;;;3.93;2.97;;;4.00;75.40;;;;;;5114146;28;20034;-75
2021/04/13 03:15:15;;;;;;;5.00;2.97;;;4.10;75.20;;;;;;5095955;28;20027;-76
2021/04/13 03:17:57;;;;;;;4.43;2.87;;;4.10;75.20;;;;;;5096401;28;20057;-76
2021/04/13 03:20:27;;;;;;;5.85;3.15;;;4.10;75.00;;;;;;5096124;28;20055;-76
2021/04/13 03:22:57;;;;;;;3.70;2.70;;;4.00;75.40;;;;;;5095778;28;20032;-77
2021/04/13 03:25:29;;;;;;;5.50;3.20;;;4.00;75.20;;;;;;5114574;28;20024;-76
2021/04/13 03:27:55;;;;;;;3.88;2.67;;;4.10;75.00;;;;;;5113844;28;20020;-77
2021/04/13 03:30:28;;;;;;;5.27;3.03;;;4.10;75.20;;;;;;5096091;28;20487;-77
2021/04/13 03:32:56;;;;;;;6.23;3.10;;;3.90;75.50;;;;;;5095542;28;20065;-77
2021/04/13 03:35:24;;;;;;;4.00;2.73;;;3.80;76.00;;;;;;5096120;28;20053;-77
2021/04/13 03:37:51;;;;;;;4.90;2.87;;;3.70;76.70;;;;;;5095447;28;20059;-78
2021/04/13 03:40:19;;;;;;;4.87;3.03;;;3.70;77.00;;;;;;5095856;28;20053;-77
2021/04/13 03:42:46;;;;;;;6.57;3.50;;;3.60;77.50;;;;;;5095940;28;20139;-76
2021/04/13 03:45:15;;;;;;;6.13;3.53;;;3.60;77.70;;;;;;5095695;28;20358;-76
2021/04/13 03:47:46;;;;;;;7.07;4.20;;;3.50;78.10;;;;;;5095421;28;20039;-76
2021/04/13 03:50:18;;;;;;;6.63;3.67;;;3.50;78.30;;;;;;5094885;28;20051;-76
2021/04/13 03:52:44;;;;;;;5.40;3.23;;;3.50;78.40;;;;;;5096016;28;20051;-76
2021/04/13 03:55:22;;;;;;;5.40;3.50;;;3.50;78.70;;;;;;5095419;28;20388;-76
2021/04/13 03:57:49;;;;;;;7.77;3.67;;;3.50;78.30;;;;;;5095046;28;20479;-77
2021/04/13 04:00:20;;;;;;;7.27;3.87;;;3.60;78.80;;;;;;5095476;28;20077;-76
2021/04/13 04:02:45;;;;;;;7.53;4.13;;;3.60;78.30;;;;;;5095630;28;20024;-76
2021/04/13 04:05:22;;;;;;;6.87;3.40;;;3.60;78.40;;;;;;5094937;28;20030;-76
2021/04/13 04:07:59;;;;;;;6.80;3.83;;;3.50;78.30;;;;;;5113047;28;20051;-78
2021/04/13 04:10:30;;;;;;;7.57;4.37;;;3.60;78.70;;;;;;5095312;28;20035;-76
2021/04/13 04:13:02;;;;;;;8.52;4.07;;;3.60;78.50;;;;;;5094905;28;20030;-76
2021/04/13 04:15:30;;;;;;;;;;;3.60;78.50;;;;;;5095776;28;20032;-76
2021/04/13 04:17:56;;;;;;;7.03;3.70;;;3.60;79.10;;;;;;5094388;28;19998;-77
2021/04/13 04:20:33;;;;;;;7.47;4.03;;;3.60;78.70;;;;;;5095252;28;20127;-76
2021/04/13 04:23:01;;;;;;;9.27;4.50;;;3.60;78.70;;;;;;5094602;28;20034;-76
2021/04/13 04:25:39;;;;;;;9.27;4.60;;;3.60;78.70;;;;;;5094388;28;20020;-76
2021/04/13 04:28:16;;;;;;;9.40;4.83;;;3.70;78.70;;;;;;5094807;28;20023;-77
2021/04/13 04:30:42;;;;;;;8.37;4.57;;;3.70;78.60;;;;;;5095023;28;20027;-76
2021/04/13 04:33:33;;;;;;;9.83;5.17;;;3.80;78.30;;;;;;5094626;28;20235;-77
2021/04/13 04:35:59;;;;;;;9.47;4.90;;;3.80;78.30;;;;;;5094577;28;20500;-77
2021/04/13 04:38:32;;;;;;;10.83;5.20;;;3.80;78.00;;;;;;5095124;28;20104;-76
2021/04/13 04:41:01;;;;;;;9.03;4.93;;;3.80;78.10;;;;;;5094577;28;20035;-76
2021/04/13 04:43:45;;;;;;;8.00;4.60;;;3.80;77.90;;;;;;5113276;28;20019;-76
2021/04/13 04:46:39;;;;;;;7.30;4.63;;;3.80;77.40;;;;;;5112506;28;20104;-76
2021/04/13 04:49:06;;;;;;;10.93;4.80;;;3.70;77.90;;;;;;5094117;28;20047;-76
2021/04/13 04:51:32;;;;;;;7.63;4.30;;;3.70;77.70;;;;;;5095087;28;20066;-76
2021/04/13 04:53:58;;;;;;;7.37;4.20;;;3.80;77.80;;;;;;5094422;28;20071;-77
2021/04/13 04:56:24;;;;;;;8.17;4.80;;;3.70;78.00;;;;;;5094701;28;20557;-76
2021/04/13 04:58:50;;;;;;;7.10;4.17;;;3.70;77.70;;;;;;5094640;28;20032;-77
2021/04/13 05:01:15;;;;;;;9.47;4.23;;;3.70;77.40;;;;;;5094879;28;20023;-76
2021/04/13 05:03:42;;;;;;;8.20;4.30;;;3.70;77.40;;;;;;5094781;28;20028;-76
2021/04/13 05:06:09;;;;;;;8.10;4.73;;;3.70;77.40;;;;;;5094084;28;20068;-76
2021/04/13 05:08:34;;;;;;;8.07;4.20;;;3.60;77.40;;;;;;5094823;28;20031;-76
2021/04/13 05:11:00;;;;;;;9.47;4.20;;;3.70;77.60;;;;;;5094317;28;20027;-76
2021/04/13 05:13:25;;;;;;;6.57;3.90;;;3.70;77.70;;;;;;5094932;28;20476;-76
2021/04/13 05:15:51;;;;;;;6.47;3.90;;;3.70;77.70;;;;;;5094379;28;20028;-77
2021/04/13 05:18:17;;;;;;;7.60;4.40;;;3.70;77.90;;;;;;5094769;28;20122;-76
2021/04/13 05:20:43;;;;;;;8.43;4.23;;;3.70;77.70;;;;;;5094787;28;20032;-77
2021/04/13 05:23:09;;;;;;;8.57;4.17;;;3.70;77.90;;;;;;5093682;28;20031;-76
2021/04/13 05:25:35;;;;;;;9.20;3.93;;;3.80;78.10;;;;;;5094636;28;20032;-76
2021/04/13 05:28:01;;;;;;;8.53;4.47;;;3.80;77.90;;;;;;5093865;28;20072;-77
2021/04/13 05:30:27;;;;;;;9.37;4.77;;;3.80;77.90;;;;;;5094332;28;20071;-76
2021/04/13 05:32:52;;;;;;;9.13;5.00;;;3.90;77.80;;;;;;5094321;28;20031;-77
2021/04/13 05:35:20;;;;;;;10.60;4.90;;;3.80;77.80;;;;;;5112871;28;20521;-76
2021/04/13 05:37:46;;;;;;;9.30;5.00;;;3.90;77.70;;;;;;5087929;28;20045;-76
2021/04/13 05:40:23;;;;;;;8.27;5.10;;;3.90;77.40;;;;;;5077236;28;20570;-76
2021/04/13 05:42:50;;;;;;;10.67;5.63;;;4.00;76.90;;;;;;5077525;28;20028;-76
2021/04/13 05:45:19;;;;;;;9.53;5.13;;;4.10;76.90;;;;;;5077110;28;20024;-77
2021/04/13 05:47:45;;;;;;;8.83;5.13;;;4.10;76.80;;;;;;5084188;28;20115;-77
2021/04/13 05:50:21;;;;;;;10.17;5.33;;;4.20;76.90;;;;;;5073934;28;20513;-77
2021/04/13 05:52:47;;;;;;;9.67;5.57;;;4.20;76.50;;;;;;5074949;28;20025;-77
2021/04/13 05:55:13;;;;;;;8.57;4.40;;;4.20;77.10;;;;;;5091216;28;20043;-77
2021/04/13 05:57:39;;;;;;;10.10;4.73;;;4.20;77.40;;;;;;5095093;28;20028;-77
2021/04/13 06:00:05;;;;;;;10.30;4.87;;;4.10;76.90;;;;;;5094601;28;20028;-78
2021/04/13 06:02:34;;;;;;;6.97;4.13;;;4.10;77.00;;;;;;5095012;28;20030;-78
2021/04/13 06:05:02;;;;;;;9.77;5.27;;;4.10;77.50;;;;;;5094716;28;20140;-78
2021/04/13 06:07:28;;;;;;;11.37;5.30;;;4.10;77.60;;;;;;5093026;28;20052;-78
2021/04/13 06:09:53;;;;;;;9.17;4.97;;;4.10;78.00;;;;;;5090095;28;20079;-78
2021/04/13 06:12:21;;;;;;;11.53;5.07;;;4.20;78.00;;;;;;5093649;28;20078;-77
2021/04/13 06:14:49;;;;;;;9.77;5.03;;;4.20;78.10;;;;;;5094788;28;20103;-78
2021/04/13 06:17:14;;;;;;;11.17;5.60;;;4.20;78.00;;;;;;5092450;28;20028;-78
2021/04/13 06:19:40;;;;;;;10.77;5.73;;;4.10;78.00;;;;;;5093301;28;20028;-77
2021/04/13 06:22:06;;;;;;;8.87;5.53;;;4.10;78.00;;;;;;5092884;28;20485;-77
2021/04/13 06:24:32;;;;;;;10.83;5.87;;;4.10;76.90;;;;;;5094496;28;20039;-77
2021/04/13 06:26:59;;;;;;;10.10;5.43;;;4.20;77.00;;;;;;5092779;28;20028;-78
2021/04/13 06:29:24;;;;;;;10.57;6.07;;;4.30;76.70;;;;;;5092474;28;20115;-78
2021/04/13 06:31:50;;;;;;;12.00;6.00;;;4.30;76.20;;;;;;5093919;28;20111;-78
2021/04/13 06:34:16;;;;;;;12.93;6.03;;;4.30;76.10;;;;;;5089935;28;20039;-75
2021/04/13 06:36:42;;;;;;;14.23;6.33;;;4.20;75.80;;;;;;5093081;28;20028;-74
2021/04/13 06:39:08;;;;;;;10.17;5.33;;;4.30;76.20;;;;;;5092150;28;20062;-75
2021/04/13 06:41:53;;;;;;;10.60;5.77;;;4.40;76.00;;;;;;5092256;28;20032;-75
2021/04/13 06:44:54;;;;;;;11.00;5.87;;;4.40;75.80;;;;;;5090946;28;20020;-74
2021/04/13 06:47:50;;;;;;;14.47;7.13;;;4.40;75.00;;;;;;5089091;28;20122;-75
2021/04/13 06:50:43;;;;;;;14.10;6.47;;;4.50;75.20;;;;;;5091524;28;20328;-74
2021/04/13 06:53:17;;;;;;;15.10;6.53;;;4.50;74.50;;;;;;5092972;28;20043;-76
2021/04/13 06:56:16;;;;;;;14.03;6.63;;;4.60;74.10;;;;;;5096263;28;20043;-75
2021/04/13 06:59:01;;;;;;;18.63;6.87;;;4.70;73.70;;;;;;5095610;28;20028;-74
2021/04/13 07:01:29;;;;;;;12.30;6.67;;;4.70;72.50;;;;;;5110795;28;20031;-78
2021/04/13 07:04:00;;;;;;;12.67;6.43;;;4.70;72.70;;;;;;5076175;28;20016;-77
2021/04/13 07:06:57;;;;;;;14.03;7.17;;;4.80;73.30;;;;;;5087604;28;20059;-78
2021/04/13 07:09:34;;;;;;;16.00;7.47;;;4.80;72.60;;;;;;5095062;28;20263;-78
2021/04/13 07:12:32;;;;;;;17.37;7.77;;;4.80;72.40;;;;;;5094733;28;20043;-77
2021/04/13 07:15:45;;;;;;;15.97;7.60;;;4.80;71.20;;;;;;5107884;28;20039;-76
2021/04/13 07:18:16;;;;;;;13.93;7.47;;;4.90;72.00;;;;;;5055771;28;20039;-76
2021/04/13 07:20:56;;;;;;;15.17;7.33;;;5.00;72.30;;;;;;5095050;28;20116;-76
2021/04/13 07:23:37;;;;;;;15.63;6.67;;;5.00;70.90;;;;;;5090696;28;20024;-76
2021/04/13 07:26:12;;;;;;;17.23;8.60;;;5.10;70.70;;;;;;5094981;28;20038;-77
2021/04/13 07:28:47;;;;;;;17.60;8.10;;;5.00;70.60;;;;;;5094848;28;20084;-76
2021/04/13 07:31:20;;;;;;;18.57;8.20;;;5.00;71.00;;;;;;5112309;28;20086;-77
2021/04/13 07:33:46;;;;;;;20.33;8.67;;;5.10;71.40;;;;;;5113132;28;20020;-77
2021/04/13 07:36:22;;;;;;;16.30;8.00;;;5.30;70.60;;;;;;5112715;28;20075;-78
2021/04/13 07:38:50;;;;;;;15.13;7.60;;;5.40;69.50;;;;;;5095171;28;20024;-76
2021/04/13 07:41:45;;;;;;;14.10;7.90;;;5.50;68.40;;;;;;5094334;28;20115;-75
2021/04/13 07:44:36;;;;;;;18.10;8.20;;;5.60;68.50;;;;;;5093830;28;20016;-76
2021/04/13 07:47:16;;;;;;;18.03;7.60;;;5.70;68.80;;;;;;5091566;28;20472;-77
2021/04/13 07:49:54;;;;;;;21.57;8.00;;;5.80;68.00;;;;;;5090620;28;20051;-76
2021/04/13 07:52:44;;;;;;;15.83;7.57;;;5.90;67.40;;;;;;5090953;28;20067;-76
2021/04/13 07:55:23;;;;;;;18.47;8.70;;;5.90;67.70;;;;;;5087777;28;20032;-75
2021/04/13 07:58:12;;;;;;;17.90;8.60;;;5.90;67.40;;;;;;5091957;28;20024;-76
2021/04/13 08:00:40;;;;;;;16.20;7.87;;;5.80;66.80;;;;;;5093567;28;20020;-76
2021/04/13 08:03:22;;;;;;;15.50;7.73;;;5.80;66.80;;;;;;5092410;28;20107;-77
2021/04/13 08:05:51;;;;;;;15.87;7.93;;;5.90;67.70;;;;;;5091450;28;20024;-77
2021/04/13 08:08:29;;;;;;;17.37;8.53;;;5.90;67.10;;;;;;5091744;28;20101;-77
2021/04/13 08:11:18;;;;;;;18.33;8.77;;;5.80;66.80;;;;;;5093677;28;20028;-77
2021/04/13 08:13:47;;;;;;;20.13;8.73;;;5.90;67.30;;;;;;5093560;28;20043;-77
2021/04/13 08:16:38;;;;;;;18.40;8.30;;;5.80;67.20;;;;;;5091096;28;20055;-78
2021/04/13 08:19:26;;;;;;;17.77;8.70;;;5.80;67.00;;;;;;5090970;28;20066;-77
2021/04/13 08:22:13;;;;;;;13.47;7.70;;;5.90;67.10;;;;;;5091353;28;20500;-74
2021/04/13 08:24:58;;;;;;;17.30;8.50;;;5.90;67.30;;;;;;5090358;28;20082;-74
2021/04/13 08:27:26;;;;;;;16.03;8.17;;;5.90;68.30;;;;;;5088628;28;20069;-75
2021/04/13 08:30:04;;;;;;;16.30;8.70;;;5.90;68.10;;;;;;5092070;28;20028;-75
2021/04/13 08:32:54;;;;;;;17.63;9.00;;;5.90;67.80;;;;;;5085979;28;20032;-76
2021/04/13 08:36:00;;;;;;;16.67;8.57;;;5.90;67.20;;;;;;5089166;28;20249;-76
2021/04/13 08:38:55;;;;;;;15.60;7.63;;;6.00;68.20;;;;;;5089048;28;20034;-74
2021/04/13 08:41:31;;;;;;;14.67;8.40;;;6.10;66.60;;;;;;5090509;28;20157;-75
2021/04/13 08:44:13;;;;;;;16.53;8.27;;;6.10;66.60;;;;;;5091953;28;20047;-74
2021/04/13 08:47:19;;;;;;;14.23;7.33;;;6.10;65.50;;;;;;5090755;28;20024;-77
2021/04/13 08:49:53;;;;;;;14.40;7.80;;;6.20;65.80;;;;;;5087737;28;20485;-78
2021/04/13 08:52:42;;;;;;;14.70;7.73;;;6.20;66.30;;;;;;5091961;28;20028;-76
2021/04/13 08:55:19;;;;;;;15.13;8.40;;;6.30;65.40;;;;;;5088942;28;20027;-79
2021/04/13 08:58:14;;;;;;;14.37;7.20;;;6.30;65.30;;;;;;5092726;28;20044;-79
2021/04/13 09:00:47;;;;;;;12.97;7.70;;;6.40;64.90;;;;;;5093048;28;20481;-78
2021/04/13 09:03:42;;;;;;;13.90;6.90;;;6.40;63.90;;;;;;5092514;28;20028;-78
2021/04/13 09:06:12;;;;;;;15.77;7.67;;;6.50;63.90;;;;;;5083159;28;20060;-78
2021/04/13 09:08:48;;;;;;;13.57;7.10;;;6.50;64.50;;;;;;5091587;28;20107;-77
2021/04/13 09:12:08;;;;;;;12.23;7.03;;;6.50;63.30;;;;;;5092030;28;20034;-76
2021/04/13 09:14:52;;;;;;;14.80;6.73;;;6.50;63.20;;;;;;5050019;28;20072;-75
2021/04/13 09:17:19;;;;;;;16.00;7.57;;;6.60;63.10;;;;;;5090671;28;20036;-75
2021/04/13 09:20:17;;;;;;;15.60;8.23;;;6.60;63.30;;;;;;5084811;28;20032;-75
2021/04/13 09:23:08;;;;;;;13.50;6.90;;;6.60;63.00;;;;;;5093873;28;20020;-76
2021/04/13 09:25:54;;;;;;;11.10;5.90;;;6.70;61.90;;;;;;5076780;28;20024;-74
2021/04/13 09:28:23;;;;;;;11.63;6.40;;;6.70;61.00;;;;;;5093331;28;20469;-74
2021/04/13 09:31:01;;;;;;;10.97;6.13;;;6.70;60.90;;;;;;5094505;28;20039;-74
2021/04/13 09:33:30;;;;;;;16.30;6.60;;;6.70;61.20;;;;;;5094802;28;20350;-75
2021/04/13 09:36:17;;;;;;;11.90;6.63;;;6.70;60.30;;;;;;5094734;28;20024;-75
2021/04/13 09:39:02;;;;;;;11.10;6.10;;;6.70;59.60;;;;;;5077419;28;20028;-75
2021/04/13 09:41:47;;;;;;;11.23;5.60;;;6.70;58.30;;;;;;5073553;28;20051;-73
2021/04/13 09:44:35;;;;;;;9.00;5.30;;;6.70;58.30;;;;;;5074539;28;20461;-74
2021/04/13 09:47:14;;;;;;;7.80;4.63;;;6.70;56.90;;;;;;5091419;28;20086;-74
2021/04/13 09:49:49;;;;;;;9.23;5.20;;;6.90;58.10;;;;;;5092653;28;20083;-74
2021/04/13 09:52:48;;;;;;;8.03;5.10;;;7.00;57.30;;;;;;5089847;28;20036;-75
2021/04/13 09:55:25;;;;;;;8.40;5.00;;;7.00;57.10;;;;;;5089754;28;20020;-74
2021/04/13 09:58:33;;;;;;;7.57;4.10;;;7.10;56.40;;;;;;5091010;28;20029;-76
2021/04/13 10:01:35;;;;;;;8.00;4.60;;;7.20;58.90;;;;;;5094211;28;20035;-75
2021/04/13 10:04:34;;;;;;;7.38;4.20;;;7.20;57.60;;;;;;5092800;28;20484;-76
2021/04/13 10:07:26;;;;;;;7.43;4.73;;;7.20;55.50;;;;;;5093798;28;20512;-78
2021/04/13 10:09:52;;;;;;;7.93;4.90;;;7.30;54.00;;;;;;5094671;28;20115;-78
2021/04/13 10:12:40;;;;;;;9.00;5.27;;;7.40;53.50;;;;;;5093550;28;20124;-79
2021/04/13 10:15:15;;;;;;;9.73;5.00;;;7.50;53.10;;;;;;5093454;28;20035;-78
2021/04/13 10:17:56;;;;;;;9.23;5.23;;;7.60;54.80;;;;;;5093129;28;20024;-76
2021/04/13 10:20:36;;;;;;;10.33;4.90;;;7.50;52.70;;;;;;5092340;28;20484;-75
2021/04/13 10:23:49;;;;;;;8.90;5.03;;;7.50;52.70;;;;;;5091393;28;20016;-74
2021/04/13 10:26:39;;;;;;;8.27;4.40;;;7.50;51.70;;;;;;5009728;28;20021;-74
2021/04/13 10:29:43;;;;;;;6.60;3.93;;;7.60;50.00;;;;;;5078404;28;20037;-75
2021/04/13 10:32:29;;;;;;;6.47;4.40;;;7.60;49.80;;;;;;5087041;28;20077;-75
2021/04/13 10:35:33;;;;;;;7.07;4.20;;;7.70;49.30;;;;;;5093049;28;20032;-75
2021/04/13 10:38:14;;;;;;;6.37;4.03;;;7.70;48.60;;;;;;5014428;28;20018;-75
2021/04/13 10:41:00;;;;;;;8.30;4.40;;;7.80;49.70;;;;;;5032275;28;20043;-75
2021/04/13 10:43:50;;;;;;;10.43;5.00;;;7.70;49.10;;;;;;5014895;28;20482;-75
2021/04/13 10:46:50;;;;;;;7.63;4.50;;;7.80;48.50;;;;;;5013499;28;20036;-74
2021/04/13 10:49:35;;;;;;;6.40;4.17;;;7.90;48.70;;;;;;5026456;28;20153;-76
2021/04/13 10:52:06;;;;;;;6.97;4.07;;;7.90;47.60;;;;;;5013634;28;20562;-76
2021/04/13 10:54:37;;;;;;;6.05;3.83;;;7.90;47.10;;;;;;5014417;28;20112;-75
2021/04/13 10:57:29;;;;;;;6.85;4.18;;;7.90;47.50;;;;;;5031039;28;20502;-75
2021/04/13 11:00:16;;;;;;;9.18;4.40;;;7.90;47.10;;;;;;5013734;28;20068;-77
2021/04/13 11:03:03;;;;;;;9.80;4.80;;;8.00;48.40;;;;;;5017038;28;20144;-77
2021/04/13 11:05:31;;;;;;;9.80;4.57;;;8.00;47.60;;;;;;5030557;28;20596;-77
2021/04/13 11:08:09;;;;;;;9.57;4.63;;;8.00;47.90;;;;;;5025052;28;20119;-74
2021/04/13 11:11:00;;;;;;;7.43;4.27;;;8.00;46.70;;;;;;5090474;28;20028;-74
2021/04/13 11:13:56;;;;;;;7.33;3.90;;;8.20;46.00;;;;;;5091142;28;20115;-74
2021/04/13 11:16:57;;;;;;;8.43;4.67;;;8.20;45.70;;;;;;5091258;28;20114;-76
2021/04/13 11:19:40;;;;;;;7.05;3.90;;;8.40;46.40;;;;;;4998564;28;20120;-75
2021/04/13 11:22:45;;;;;;;5.65;3.92;;;8.50;45.80;;;;;;5101261;28;20473;-78
2021/04/13 11:25:32;;;;;;;10.07;4.40;;;8.50;45.10;;;;;;5090933;28;20029;-74
2021/04/13 11:28:48;;;;;;;5.25;3.65;;;8.60;47.50;;;;;;5091375;28;20449;-74
2021/04/13 11:31:32;;;;;;;8.20;4.03;;;8.60;44.00;;;;;;5089539;28;20035;-74
2021/04/13 11:34:16;;;;;;;8.03;4.43;;;8.60;45.30;;;;;;5091044;28;20054;-75
2021/04/13 11:36:42;;;;;;;6.80;4.20;;;8.60;45.20;;;;;;5091812;28;20031;-74
2021/04/13 11:39:27;;;;;;;6.83;4.47;;;8.70;45.20;;;;;;5090736;28;20024;-77
2021/04/13 11:42:17;;;;;;;6.60;4.37;;;8.60;43.00;;;;;;5089274;28;20024;-76
2021/04/13 11:45:02;;;;;;;7.70;4.43;;;8.60;44.10;;;;;;5093403;28;20028;-76
2021/04/13 11:47:42;;;;;;;7.85;4.10;;;8.70;45.30;;;;;;5090155;28;20028;-76
2021/04/13 11:50:32;;;;;;;7.30;3.83;;;8.90;47.20;;;;;;5091442;28;20052;-75
2021/04/13 11:53:09;;;;;;;6.15;3.70;;;8.90;43.80;;;;;;5090062;28;20024;-76
2021/04/13 11:55:41;;;;;;;5.28;3.50;;;9.00;43.20;;;;;;5091240;28;20491;-82
2021/04/13 11:58:17;;;;;;;5.18;3.28;;;9.00;42.30;;;;;;5090502;28;20020;-76
2021/04/13 12:01:09;;;;;;;5.90;3.70;;;9.10;43.00;;;;;;5091920;28;20028;-75
2021/04/13 12:03:37;;;;;;;6.32;3.88;;;9.20;43.20;;;;;;5088620;28;20024;-74
2021/04/13 12:06:12;;;;;;;4.90;3.33;;;9.40;43.00;;;;;;5091380;28;20032;-77
2021/04/13 12:08:50;;;;;;;6.60;3.85;;;9.60;44.30;;;;;;5092065;28;20112;-77
2021/04/13 12:11:37;;;;;;;6.22;3.30;;;9.80;43.60;;;;;;5092195;28;20032;-77
2021/04/13 12:14:30;;;;;;;6.68;3.92;;;9.90;42.10;;;;;;5077025;28;20072;-77
2021/04/13 12:16:55;;;;;;;;;;;10.20;41.00;;;;;;5091326;28;20024;-77
2021/04/13 12:19:22;;;;;;;5.80;3.05;;;10.20;39.50;;;;;;5090804;28;19961;-77
2021/04/13 12:22:19;;;;;;;4.65;3.47;;;10.30;40.10;;;;;;5091834;28;20058;-77
2021/04/13 12:24:47;;;;;;;5.40;3.50;;;10.50;41.00;;;;;;5091439;28;20020;-77
2021/04/13 12:27:28;;;;;;;8.35;4.00;;;10.70;39.20;;;;;;5086269;28;20094;-77
2021/04/13 12:30:25;;;;;;;5.10;3.42;;;10.90;41.20;;;;;;5089141;28;20028;-77
2021/04/13 12:32:52;;;;;;;5.18;2.97;;;11.20;39.30;;;;;;5081857;28;20048;-78
2021/04/13 12:35:46;;;;;;;4.88;3.25;;;11.30;37.40;;;;;;5071404;28;20074;-77
2021/04/13 12:38:37;;;;;;;5.22;3.25;;;11.40;35.80;;;;;;5070522;28;20020;-77
2021/04/13 12:41:34;;;;;;;5.18;3.60;;;11.40;35.40;;;;;;5080711;28;20082;-77
2021/04/13 12:44:10;;;;;;;6.18;2.78;;;11.50;36.70;;;;;;5091056;28;20032;-75
2021/04/13 12:46:35;;;;;;;5.50;3.17;;;11.60;36.30;;;;;;5093156;28;20078;-77
2021/04/13 12:49:12;;;;;;;5.38;3.22;;;11.80;35.50;;;;;;5096564;28;20036;-77
2021/04/13 12:51:55;;;;;;;5.55;3.22;;;11.80;35.00;;;;;;5096205;28;20418;-77
2021/04/13 12:54:39;;;;;;;5.18;3.58;;;11.90;34.20;;;;;;5114106;28;20061;-78
2021/04/13 12:57:07;;;;;;;6.05;3.13;;;12.00;34.20;;;;;;5097375;28;20031;-78
2021/04/13 12:59:34;;;;;;;4.05;2.85;;;12.10;34.20;;;;;;5099126;28;20023;-78
2021/04/13 13:02:00;;;;;;;4.65;2.90;;;12.30;34.70;;;;;;5098022;28;20024;-77
2021/04/13 13:04:39;;;;;;;5.60;3.42;;;12.40;35.90;;;;;;5096770;28;20028;-78
2021/04/13 13:07:08;;;;;;;4.35;2.70;;;12.70;36.50;;;;;;5098371;28;20023;-77
2021/04/13 13:09:40;;;;;;;3.67;2.90;;;12.80;33.50;;;;;;5098444;28;20030;-78
2021/04/13 13:12:05;;;;;;;;;;;13.00;33.20;;;;;;5098908;28;20034;-77
2021/04/13 13:14:33;;;;;;;5.35;2.78;;;13.30;35.10;;;;;;5097411;28;20002;-78
2021/04/13 13:17:00;;;;;;;3.58;2.63;;;13.70;33.20;;;;;;5097994;28;20028;-77
2021/04/13 13:19:35;;;;;;;4.72;2.53;;;14.00;31.10;;;;;;5094617;28;20055;-78
2021/04/13 13:22:11;;;;;;;4.80;2.40;;;14.40;29.50;;;;;;5077838;28;20067;-77
2021/04/13 13:24:36;;;;;;;3.08;2.17;;;15.00;31.30;;;;;;5077738;28;20138;-77
2021/04/13 13:27:32;;;;;;;3.47;2.17;;;15.60;30.00;;;;;;5101909;28;20596;-78
2021/04/13 13:30:01;;;;;;;6.90;1.98;;;16.00;29.70;;;;;;5076908;28;20036;-75
2021/04/13 13:32:28;;;;;;;3.03;1.90;;;16.50;28.30;;;;;;5097213;28;20028;-74
2021/04/13 13:34:59;;;;;;;2.40;2.08;;;16.70;26.50;;;;;;5085065;28;20042;-75
2021/04/13 13:37:31;;;;;;;4.13;1.80;;;17.20;26.70;;;;;;5093512;28;20022;-75
2021/04/13 13:39:59;;;;;;;2.72;1.80;;;17.30;26.80;;;;;;5097453;28;20032;-77
2021/04/13 13:42:26;;;;;;;2.58;1.50;;;17.70;26.50;;;;;;5097053;28;20072;-78
2021/04/13 13:44:54;;;;;;;1.73;1.50;;;17.80;27.00;;;;;;5115617;28;20073;-77
2021/04/13 13:47:32;;;;;;;2.58;1.60;;;18.10;26.40;;;;;;5114941;28;20036;-77